首页
METAR-TAF:

METAR-TAF

机场 :

Greater Rochester International Airport

羅徹斯特, 紐約州, 美国

纬度: 43-07-00N, 经度: 077-40-36W, 海拔: 170米

当前天气观测

该预报发布于58分钟前的03:54 UTC
风速7节,风向西
温度 -1°C
湿度 93%
气压 1013 hPa
能見度: 11.3公里
散云层高于1000英尺
阴天层高于4200英尺
小雪

METAR: KROC 190354Z 26007KT 7SM -SN SCT010 OVC042 M01/M02 A2991 RMK AO2 SLP139 P0000 T10111017

时间: 23:52 (04:52 UTC)

预报

该预报发布于2小时和50分钟前的02:02 UTC
预报有效从19日的 02点(UTC)到 19日的 24点(UTC)
风速5节,风向西转西南
能見度: 4.8公里
阴天层高于2500英尺
小阵雪
从 19日的 0600点(UTC)
风速5节,风向西南
能見度: 10公里
阴天层高于2500英尺
附近有阵雨
从 19日的 1400点(UTC)
风速14节,风向西转西南,有时为22节阵风
能見度: 4.8公里
阴天层高于2500英尺
小阵雪

TAF: KROC 190202Z 1902/1924 25005KT 3SM -SHSN OVC025 FM190600 23005KT P6SM VCSH OVC025 FM191400 25014G22KT 3SM -SHSN OVC025

超过4000个机场的气象观测和天气预报(METAR&TAF报告)。

可查询的气象台以黄色和红色小点在地图上表示。

将鼠标移到小点上方,可查看气象台名称。

然后点击查看天气观测和预报。

如需切换地图:点击带黑十字的绿色按钮放大地图;点击带横线的绿色按钮缩小地图;或者点击绿色箭头查看邻近地区的地图。


METAR-TAF: